Paxville, South Carolina
Current Conditions -  °F | °C
As of 2:55 PM on Saturday 25 Oct 2014 (Local Time) from KMNI Reporting Station
Clear Clear  
Wind Chill: 25°   Ceiling: Unl
Heat Index: 25°   Visibility: 10mi
Dew Point:   Wind: 5mph
Humidity: 24%   Direction: 330°NNW
Pressure: 29.96"   Gusts: NA
Location:  33.6434°N, 80.1966°W
Report Text: KMNI 251855Z AUTO 33004KT 10SM CLR 25/03 A2996 RMK AO2
Loading
Personal Weather Stations






























Interactive Weather Map
Tropical Storm Tracking
New forecast layout! Learn more

10-Day Weather Forecast

Advertisements
Track Severe Weather on mobile